createdAt,value
2023-01-26T00:02:29.415Z,28.5
2023-01-26T00:05:16.984Z,29.1
2023-01-26T00:08:04.352Z,27.8
2023-01-26T00:10:53.090Z,29.1
2023-01-26T00:13:41.311Z,31.6
2023-01-26T00:16:29.322Z,30.6
2023-01-26T00:19:16.709Z,31.2
2023-01-26T00:22:04.032Z,27.9
2023-01-26T00:24:51.369Z,30.6
2023-01-26T00:27:38.720Z,30.7
2023-01-26T00:30:26.083Z,27.7
2023-01-26T00:33:13.368Z,28.8
2023-01-26T00:36:01.194Z,28.8
2023-01-26T00:38:48.738Z,30
2023-01-26T00:41:36.325Z,27.7
2023-01-26T00:44:55.402Z,31
2023-01-26T00:47:42.720Z,29.3
2023-01-26T00:50:30.005Z,31
2023-01-26T00:53:17.842Z,28.7
2023-01-26T00:56:05.156Z,29.9
2023-01-26T00:58:53.428Z,28.9
2023-01-26T01:01:41.022Z,27.4
2023-01-26T01:04:29.006Z,28.6
2023-01-26T01:07:16.482Z,30
2023-01-26T01:10:04.088Z,28.8
2023-01-26T01:12:53.024Z,26.9
2023-01-26T01:15:41.267Z,27.8
2023-01-26T01:18:28.603Z,27.1
2023-01-26T01:21:15.993Z,28.8
2023-01-26T01:24:03.400Z,28.4
2023-01-26T01:26:51.384Z,30.1
2023-01-26T01:29:38.701Z,28.3
2023-01-26T01:32:26.337Z,26.5
2023-01-26T01:35:13.663Z,29.4
2023-01-26T01:38:01.263Z,26.6
2023-01-26T01:40:48.591Z,26.4
2023-01-26T01:43:36.277Z,24.8
2023-01-26T01:46:24.137Z,24.8
2023-01-26T01:49:17.532Z,25.5
2023-01-26T01:52:08.687Z,25.2
2023-01-26T01:55:02.320Z,25.3
2023-01-26T01:57:54.132Z,23.8
2023-01-26T02:00:44.913Z,22.1
2023-01-26T02:03:32.402Z,22
2023-01-26T02:06:20.900Z,22.3
2023-01-26T02:09:14.324Z,20.1
2023-01-26T02:13:03.135Z,19.5
2023-01-26T02:15:51.961Z,19.7
2023-01-26T02:18:40.256Z,20.7
2023-01-26T02:21:28.499Z,20.8
2023-01-26T02:24:16.941Z,24.9
2023-01-26T02:27:11.541Z,22.1
2023-01-26T02:29:58.890Z,22.8
2023-01-26T02:32:47.920Z,21.7
2023-01-26T02:35:35.276Z,23
2023-01-26T02:38:22.585Z,24.5
2023-01-26T02:41:15.926Z,23.1
2023-01-26T02:45:22.983Z,23
2023-01-26T02:48:12.644Z,22.5
2023-01-26T02:52:31.512Z,20.8
2023-01-26T02:55:18.966Z,21.3
2023-01-26T02:58:07.509Z,20.2
2023-01-26T03:00:54.901Z,23.7
2023-01-26T03:03:42.605Z,22.6
2023-01-26T03:06:30.303Z,22.5
2023-01-26T03:09:17.596Z,22.2
2023-01-26T03:12:05.038Z,24.3
2023-01-26T03:14:52.476Z,23.8
2023-01-26T03:18:27.273Z,23.7
2023-01-26T03:21:46.625Z,23
2023-01-26T03:25:05.653Z,21.9
2023-01-26T03:28:26.557Z,23.7
2023-01-26T03:31:14.035Z,23.9
2023-01-26T03:34:01.399Z,23.3
2023-01-26T03:36:48.905Z,21.4
2023-01-26T03:39:36.232Z,22.3
2023-01-26T03:42:55.112Z,23
2023-01-26T03:46:14.129Z,22.3
2023-01-26T03:49:33.081Z,19.9
2023-01-26T03:52:52.193Z,21.4
2023-01-26T03:56:11.288Z,21.5
2023-01-26T03:59:02.895Z,23.4
2023-01-26T04:01:54.105Z,23.1
2023-01-26T04:05:13.942Z,21
2023-01-26T04:08:33.019Z,22
2023-01-26T04:11:20.254Z,22.5
2023-01-26T04:14:07.769Z,20.3
2023-01-26T04:17:29.226Z,22.3
2023-01-26T04:20:48.356Z,22.8
2023-01-26T04:24:07.341Z,23.9
2023-01-26T04:26:58.545Z,23.6
2023-01-26T04:29:45.826Z,22.7
2023-01-26T04:32:33.183Z,21.9
2023-01-26T04:35:20.545Z,24.4
2023-01-26T04:38:07.916Z,23.3
2023-01-26T04:40:55.212Z,21.6
2023-01-26T04:43:42.777Z,22.3
2023-01-26T04:46:30.239Z,21.9
2023-01-26T04:49:17.950Z,22.1
2023-01-26T04:52:05.365Z,23
2023-01-26T04:54:52.620Z,22
2023-01-26T04:57:40.025Z,22.7
2023-01-26T05:00:27.362Z,23.7
2023-01-26T05:03:14.737Z,20.9
2023-01-26T05:06:02.629Z,21.4
2023-01-26T05:08:50.231Z,23.3
2023-01-26T05:11:37.531Z,23.4
2023-01-26T05:14:25.135Z,23.9
2023-01-26T05:17:13.020Z,23.9
2023-01-26T05:20:00.380Z,23.8
2023-01-26T05:22:48.644Z,25.6
2023-01-26T05:25:35.980Z,22.9
2023-01-26T05:28:23.364Z,21.5
2023-01-26T05:31:11.884Z,22.1
2023-01-26T05:33:59.269Z,22.5
2023-01-26T05:36:46.608Z,22.3
2023-01-26T05:39:33.943Z,22.6
2023-01-26T05:42:21.251Z,20.6
2023-01-26T05:45:09.280Z,21.1
2023-01-26T05:47:56.721Z,23.9
2023-01-26T05:50:44.157Z,22.9
2023-01-26T05:53:31.465Z,21.8
2023-01-26T05:56:18.776Z,22.8
2023-01-26T05:59:05.998Z,20.9
2023-01-26T06:01:53.634Z,22
2023-01-26T06:04:41.732Z,20.9
2023-01-26T06:07:29.212Z,23.2
2023-01-26T06:10:16.870Z,22.7
2023-01-26T06:13:04.404Z,22.7
2023-01-26T06:15:51.717Z,22.7
2023-01-26T06:18:39.045Z,23.3
2023-01-26T06:21:26.502Z,23
2023-01-26T06:24:13.916Z,21.6
2023-01-26T06:27:01.342Z,23.2
2023-01-26T06:29:51.581Z,20.2
2023-01-26T06:32:39.013Z,22.8
2023-01-26T06:35:26.588Z,22.8
2023-01-26T06:38:14.279Z,20.9
2023-01-26T06:41:01.735Z,21.8
2023-01-26T06:43:51.637Z,20
2023-01-26T06:46:39.208Z,23
2023-01-26T06:49:26.805Z,20.3
2023-01-26T06:52:14.195Z,20.1
2023-01-26T06:55:20.664Z,20.2
2023-01-26T06:58:17.256Z,19.4
2023-01-26T07:01:04.509Z,20.2
2023-01-26T07:03:52.184Z,20.3
2023-01-26T07:06:40.458Z,17.4
2023-01-26T07:09:28.344Z,19
2023-01-26T07:12:15.634Z,17.7
2023-01-26T07:15:02.939Z,15.4
2023-01-26T07:17:51.027Z,17.3
2023-01-26T07:20:39.196Z,15.4
2023-01-26T07:23:26.802Z,15.6
2023-01-26T07:26:14.303Z,16.1
2023-01-26T07:29:01.838Z,16
2023-01-26T07:31:49.302Z,16.5
2023-01-26T07:34:36.857Z,16.2
2023-01-26T07:37:24.600Z,16.6
2023-01-26T07:40:13.369Z,17.1
2023-01-26T07:43:01.327Z,15.8
2023-01-26T07:45:48.724Z,15.5
2023-01-26T07:48:37.897Z,17
2023-01-26T07:51:26.424Z,16.9
2023-01-26T07:54:13.754Z,15.8
2023-01-26T07:57:01.167Z,16.2
2023-01-26T07:59:51.538Z,18.1
2023-01-26T08:02:39.458Z,17.5
2023-01-26T08:05:27.147Z,15.3
2023-01-26T08:08:14.785Z,16.3
2023-01-26T08:11:02.648Z,18.1
2023-01-26T08:13:50.263Z,16.4
2023-01-26T08:16:37.732Z,17.9
2023-01-26T08:19:25.350Z,17.9
2023-01-26T08:22:13.685Z,18.8
2023-01-26T08:25:00.995Z,19.4
2023-01-26T08:27:48.755Z,19
2023-01-26T08:30:36.121Z,16.2
2023-01-26T08:33:24.085Z,16
2023-01-26T08:36:12.634Z,14.8
2023-01-26T08:39:01.443Z,14.8
2023-01-26T08:41:48.978Z,13.7
2023-01-26T08:44:36.353Z,12.6
2023-01-26T08:47:23.692Z,13.8
2023-01-26T08:50:12.559Z,14.3
2023-01-26T08:53:00.464Z,15.9
2023-01-26T08:55:48.236Z,14.9
2023-01-26T08:58:36.220Z,15.7
2023-01-26T09:01:24.145Z,15
2023-01-26T09:04:12.697Z,14.8
2023-01-26T09:07:00.149Z,16.2
2023-01-26T09:09:47.496Z,15
2023-01-26T09:12:34.921Z,14.4
2023-01-26T09:15:22.245Z,16.3
2023-01-26T09:18:10.284Z,16.3
2023-01-26T09:20:57.609Z,14.6
2023-01-26T09:23:49.327Z,15
2023-01-26T09:26:36.711Z,13.8
2023-01-26T09:29:24.272Z,13.8
2023-01-26T09:32:11.879Z,15
2023-01-26T09:34:59.412Z,15.1
2023-01-26T09:37:46.808Z,15
2023-01-26T09:40:34.214Z,14.7
2023-01-26T09:43:30.650Z,14.8
2023-01-26T09:46:24.186Z,14.3
2023-01-26T09:49:22.383Z,15.5
2023-01-26T09:52:14.206Z,15.3
2023-01-26T09:55:10.028Z,15.1
2023-01-26T09:58:02.017Z,13.9
2023-01-26T10:00:55.150Z,15.1
2023-01-26T10:03:46.905Z,15.7
2023-01-26T10:06:44.249Z,17.3
2023-01-26T10:09:32.407Z,17
2023-01-26T10:12:23.007Z,15
2023-01-26T10:15:15.768Z,17
2023-01-26T10:18:16.164Z,16.5
2023-01-26T10:21:09.010Z,16.3
2023-01-26T10:23:57.785Z,14
2023-01-26T10:26:47.719Z,15.8
2023-01-26T10:29:37.785Z,14.8
2023-01-26T10:32:25.459Z,13.1
2023-01-26T10:35:13.656Z,13.9
2023-01-26T10:38:04.615Z,12.8
2023-01-26T10:41:13.631Z,12.6
2023-01-26T10:44:17.056Z,12.3
2023-01-26T10:47:10.311Z,14.1
2023-01-26T10:50:02.146Z,13.4
2023-01-26T10:53:09.671Z,12.5
2023-01-26T10:56:07.784Z,12.7
2023-01-26T10:58:59.438Z,12.3
2023-01-26T11:01:47.811Z,11.6
2023-01-26T11:04:41.373Z,13.1
2023-01-26T11:07:47.551Z,13
2023-01-26T11:10:36.252Z,11.6
2023-01-26T11:13:36.004Z,13.2
2023-01-26T11:16:23.519Z,13.1
2023-01-26T11:19:13.476Z,12.5
2023-01-26T11:22:12.757Z,11.2
2023-01-26T11:25:05.681Z,12.3
2023-01-26T11:28:05.976Z,12.7
2023-01-26T11:31:12.255Z,12.7
2023-01-26T11:34:09.656Z,13.1
2023-01-26T11:37:09.696Z,14.1
2023-01-26T11:40:18.925Z,13
2023-01-26T11:43:25.564Z,12.4
2023-01-26T11:46:52.984Z,12.6
2023-01-26T11:49:52.810Z,12.5
2023-01-26T11:53:02.915Z,12.9
2023-01-26T11:56:16.112Z,13
2023-01-26T11:59:15.655Z,13.6
2023-01-26T12:02:10.355Z,12.5
2023-01-26T12:05:12.730Z,13
2023-01-26T12:08:05.038Z,13.8
2023-01-26T12:11:01.290Z,13.1
2023-01-26T12:14:08.688Z,14.8
2023-01-26T12:17:17.380Z,16.2
2023-01-26T12:20:18.535Z,14.9
2023-01-26T12:23:16.654Z,15.3
2023-01-26T12:26:14.808Z,14.2
2023-01-26T12:29:07.288Z,17.3
2023-01-26T12:32:02.024Z,16.5
2023-01-26T12:34:55.048Z,17.2
2023-01-26T12:37:43.753Z,15
2023-01-26T12:40:38.718Z,15.9
2023-01-26T12:43:37.363Z,16
2023-01-26T12:46:40.254Z,17.2
2023-01-26T12:49:32.350Z,17
2023-01-26T12:52:25.756Z,17.1
2023-01-26T12:55:18.283Z,16
2023-01-26T12:58:11.330Z,16.9
2023-01-26T13:01:03.301Z,16.5
2023-01-26T13:03:54.441Z,18.3
2023-01-26T13:06:43.747Z,16.9
2023-01-26T13:09:47.132Z,17.5
2023-01-26T13:12:56.053Z,18.3
2023-01-26T13:15:45.996Z,17.5
2023-01-26T13:19:16.494Z,18.7
2023-01-26T13:22:21.776Z,19.8
2023-01-26T13:25:26.748Z,19.1
2023-01-26T13:28:17.712Z,18.5
2023-01-26T13:31:13.803Z,17.4
2023-01-26T13:34:16.721Z,18.4
2023-01-26T13:37:08.280Z,16.6
2023-01-26T13:40:00.115Z,17.4
2023-01-26T13:42:59.310Z,17.8
2023-01-26T13:45:55.231Z,19
2023-01-26T13:48:53.758Z,18.5
2023-01-26T13:51:41.677Z,17.8
2023-01-26T13:54:29.104Z,17.2
2023-01-26T13:57:16.442Z,16.5
2023-01-26T14:00:07.820Z,16.4
2023-01-26T14:02:57.928Z,18
2023-01-26T14:05:45.350Z,17.4
2023-01-26T14:08:38.063Z,16.8
2023-01-26T14:11:28.161Z,20.7
2023-01-26T14:14:18.244Z,17.6
2023-01-26T14:17:11.214Z,19
2023-01-26T14:20:12.452Z,17.8
2023-01-26T14:23:10.708Z,18.9
2023-01-26T14:25:59.749Z,18.3
2023-01-26T14:28:49.391Z,17.3
2023-01-26T14:31:36.865Z,17.5
2023-01-26T14:34:25.125Z,16.2
2023-01-26T14:37:15.217Z,15.7
2023-01-26T14:40:03.544Z,15.9
2023-01-26T14:43:08.853Z,17.9
2023-01-26T14:45:58.174Z,17.4
2023-01-26T14:48:52.544Z,17.7
2023-01-26T14:51:46.670Z,18.2
2023-01-26T14:54:41.280Z,17.1
2023-01-26T14:57:30.001Z,18.1
2023-01-26T15:00:18.243Z,16.4
2023-01-26T15:03:11.824Z,14.8
2023-01-26T15:06:08.557Z,14.9
2023-01-26T15:09:08.152Z,16.4
2023-01-26T15:12:07.405Z,16.7
2023-01-26T15:15:01.943Z,15.5
2023-01-26T15:17:58.855Z,15.6
2023-01-26T15:20:51.154Z,16.1
2023-01-26T15:23:44.861Z,17.5
2023-01-26T15:26:36.409Z,17.5
2023-01-26T15:29:24.174Z,16.1
2023-01-26T15:32:17.174Z,16.7
2023-01-26T15:35:14.791Z,16.7
2023-01-26T15:38:07.317Z,15.3
2023-01-26T15:40:59.124Z,16.1
2023-01-26T15:43:46.832Z,15.5
2023-01-26T15:46:34.801Z,15.5
2023-01-26T15:49:22.432Z,14.3
2023-01-26T15:52:10.059Z,15
2023-01-26T15:54:58.972Z,15.1
2023-01-26T15:57:46.527Z,15.6
2023-01-26T16:00:34.231Z,13.7
2023-01-26T16:03:22.710Z,12.7
2023-01-26T16:06:10.772Z,14.6
2023-01-26T16:09:06.716Z,13.6
2023-01-26T16:11:54.561Z,14.7
2023-01-26T16:14:42.134Z,16.3
2023-01-26T16:17:29.987Z,15.5
2023-01-26T16:20:17.790Z,17.5
2023-01-26T16:23:05.331Z,17.9
2023-01-26T16:26:02.764Z,17.5
2023-01-26T16:28:54.014Z,17.4
2023-01-26T16:31:41.805Z,17.4
2023-01-26T16:34:29.759Z,19.1
2023-01-26T16:37:17.138Z,25
2023-01-26T16:40:04.855Z,22.1
2023-01-26T16:42:54.748Z,20.2
2023-01-26T16:45:42.133Z,19.5
2023-01-26T16:48:29.425Z,19.2
2023-01-26T16:51:19.347Z,20.7
2023-01-26T16:54:11.010Z,21.4
2023-01-26T16:56:58.619Z,22.2
2023-01-26T16:59:46.133Z,21.4
2023-01-26T17:02:33.529Z,23.7
2023-01-26T17:05:21.595Z,24.2
2023-01-26T17:08:08.987Z,21.6
2023-01-26T17:11:02.419Z,21.8
2023-01-26T17:13:50.597Z,19.1
2023-01-26T17:16:38.363Z,19.8
2023-01-26T17:19:26.027Z,19.1
2023-01-26T17:22:14.087Z,19.7
2023-01-26T17:25:01.583Z,19
2023-01-26T17:27:49.465Z,16.8
2023-01-26T17:30:36.864Z,17.8
2023-01-26T17:33:24.239Z,18.5
2023-01-26T17:36:13.702Z,16.9
2023-01-26T17:39:02.662Z,17.6
2023-01-26T17:41:50.040Z,18
2023-01-26T17:44:38.473Z,16.4
2023-01-26T17:47:27.226Z,16.5
2023-01-26T17:50:16.980Z,17.3
2023-01-26T17:53:04.379Z,15.7
2023-01-26T17:55:51.693Z,15.8
2023-01-26T17:58:39.116Z,16.2
2023-01-26T18:01:26.796Z,17.7
2023-01-26T18:04:14.593Z,19.9
2023-01-26T18:07:02.220Z,19.1
2023-01-26T18:09:50.166Z,20.1
2023-01-26T18:12:37.526Z,19.6
2023-01-26T18:15:25.264Z,18.2
2023-01-26T18:18:13.997Z,18.1
2023-01-26T18:21:01.463Z,22
2023-01-26T18:23:58.406Z,20
2023-01-26T18:26:48.703Z,16.2
2023-01-26T18:29:36.411Z,17.8
2023-01-26T18:32:23.789Z,17.2
2023-01-26T18:35:12.283Z,16.5
2023-01-26T18:38:00.023Z,17.8
2023-01-26T18:40:48.115Z,15.6
2023-01-26T18:43:35.459Z,16.1
2023-01-26T18:46:22.904Z,16.3
2023-01-26T18:49:13.264Z,18.4
2023-01-26T18:52:00.712Z,18.8
2023-01-26T18:54:48.125Z,17.3
2023-01-26T18:57:36.095Z,17.7
2023-01-26T19:00:23.498Z,17.5
2023-01-26T19:03:11.532Z,19
2023-01-26T19:05:58.966Z,18.8
2023-01-26T19:08:47.489Z,23.5
2023-01-26T19:11:42.815Z,25.9
2023-01-26T19:14:30.237Z,26.5
2023-01-26T19:17:17.901Z,26.2
2023-01-26T19:20:05.637Z,24.3
2023-01-26T19:22:54.482Z,25.3
2023-01-26T19:25:42.000Z,21.8
2023-01-26T19:28:29.267Z,22.5
2023-01-26T19:31:16.748Z,22.4
2023-01-26T19:34:05.038Z,23.3
2023-01-26T19:36:57.795Z,22.4
2023-01-26T19:39:45.224Z,20.9
2023-01-26T19:42:32.552Z,22.1
2023-01-26T19:45:19.925Z,21.5
2023-01-26T19:48:07.261Z,22.5
2023-01-26T19:50:54.547Z,21.1
2023-01-26T19:53:46.637Z,21.1
2023-01-26T19:56:36.905Z,19.7
2023-01-26T19:59:24.865Z,21.3
2023-01-26T20:02:13.376Z,18.5
2023-01-26T20:05:00.958Z,17
2023-01-26T20:07:48.973Z,16.3
2023-01-26T20:10:36.481Z,19.4
2023-01-26T20:13:23.877Z,19.2
2023-01-26T20:16:12.094Z,18.5
2023-01-26T20:18:59.591Z,17.9
2023-01-26T20:21:47.740Z,17.1
2023-01-26T20:24:35.578Z,17
2023-01-26T20:27:23.853Z,19.5
2023-01-26T20:30:13.072Z,18.6
2023-01-26T20:33:01.457Z,18.8
2023-01-26T20:35:49.239Z,18.6
2023-01-26T20:38:36.527Z,19.3
2023-01-26T20:41:24.127Z,17.5
2023-01-26T20:44:14.306Z,18.2
2023-01-26T20:47:02.208Z,18.6
2023-01-26T20:49:49.514Z,19.7
2023-01-26T20:52:43.470Z,21.4
2023-01-26T20:55:31.241Z,21.7
2023-01-26T20:58:18.966Z,20.5
2023-01-26T21:01:06.690Z,22.2
2023-01-26T21:03:56.768Z,20.3
2023-01-26T21:06:44.534Z,17.9
2023-01-26T21:09:31.908Z,18.9
2023-01-26T21:12:19.313Z,16.4
2023-01-26T21:15:06.725Z,18.4
2023-01-26T21:17:54.987Z,17.6
2023-01-26T21:20:42.274Z,15.5
2023-01-26T21:23:38.537Z,17.4
2023-01-26T21:26:26.642Z,18.2
2023-01-26T21:29:14.548Z,16.8
2023-01-26T21:32:02.065Z,16.2
2023-01-26T21:34:49.499Z,16.9
2023-01-26T21:37:36.768Z,16.6
2023-01-26T21:40:24.207Z,17.5
2023-01-26T21:43:12.389Z,17
2023-01-26T21:45:59.851Z,16.3
2023-01-26T21:48:47.334Z,17.2
2023-01-26T21:51:35.216Z,18.6
2023-01-26T21:54:54.500Z,16.4
2023-01-26T21:57:43.499Z,16.6
2023-01-26T22:01:02.509Z,17.1
2023-01-26T22:03:52.095Z,17.2
2023-01-26T22:06:40.617Z,16
2023-01-26T22:09:28.547Z,17.1
2023-01-26T22:12:16.031Z,17.4
2023-01-26T22:15:03.359Z,16.7
2023-01-26T22:17:51.937Z,15.6
2023-01-26T22:20:39.224Z,15.1
2023-01-26T22:23:28.302Z,16.8
2023-01-26T22:26:17.450Z,15.6
2023-01-26T22:29:06.864Z,16.3
2023-01-26T22:31:56.988Z,15.9
2023-01-26T22:34:44.451Z,15.1
2023-01-26T22:37:31.778Z,17.6
2023-01-26T22:40:19.021Z,17.8
2023-01-26T22:43:06.361Z,17.1
2023-01-26T22:45:53.979Z,16.8
2023-01-26T22:48:46.051Z,16.9
2023-01-26T22:51:34.074Z,17.3
2023-01-26T22:54:21.728Z,18.1
2023-01-26T22:57:09.357Z,17.5
2023-01-26T22:59:56.688Z,14.6
2023-01-26T23:02:44.132Z,17.4
2023-01-26T23:05:32.076Z,16.5
2023-01-26T23:08:19.713Z,18.1
2023-01-26T23:11:06.963Z,18.5
2023-01-26T23:13:58.213Z,15.5
2023-01-26T23:16:46.020Z,15.8
2023-01-26T23:19:33.533Z,16.5
2023-01-26T23:22:20.884Z,14.6
2023-01-26T23:25:08.279Z,15.5
2023-01-26T23:28:56.869Z,15.3
2023-01-26T23:31:44.276Z,13.1
2023-01-26T23:34:31.655Z,13
2023-01-26T23:37:18.915Z,13.3
2023-01-26T23:40:06.179Z,13.5
2023-01-26T23:43:06.850Z,13.3
2023-01-26T23:46:02.969Z,12.2
2023-01-26T23:48:51.926Z,14.4
2023-01-26T23:51:39.314Z,12.1
2023-01-26T23:54:27.023Z,13.1
2023-01-26T23:57:14.464Z,13.7
